createdAt,value
2019-02-04T00:00:12.967Z,10.17
2019-02-04T00:03:20.250Z,12.40
2019-02-04T00:06:25.388Z,9.80
2019-02-04T00:09:30.525Z,9.67
2019-02-04T00:12:35.633Z,15.97
2019-02-04T00:15:40.784Z,10.83
2019-02-04T00:18:45.927Z,10.30
2019-02-04T00:21:51.087Z,7.87
2019-02-04T00:24:56.303Z,12.77
2019-02-04T00:28:01.521Z,8.60
2019-02-04T00:31:06.650Z,9.73
2019-02-04T00:34:12.177Z,11.67
2019-02-04T00:37:17.398Z,16.40
2019-02-04T00:40:23.314Z,10.33
2019-02-04T00:43:28.523Z,13.03
2019-02-04T00:46:33.703Z,10.37
2019-02-04T00:49:38.952Z,10.80
2019-02-04T00:52:44.109Z,35.43
2019-02-04T00:55:49.224Z,24.27
2019-02-04T00:58:54.352Z,13.10
2019-02-04T01:01:59.600Z,12.10
2019-02-04T01:05:06.013Z,9.90
2019-02-04T01:08:11.271Z,8.87
2019-02-04T01:11:16.459Z,8.87
2019-02-04T01:14:21.805Z,12.07
2019-02-04T01:17:27.069Z,8.40
2019-02-04T01:20:32.361Z,8.70
2019-02-04T01:23:37.544Z,10.03
2019-02-04T01:26:42.759Z,9.60
2019-02-04T01:29:47.952Z,11.17
2019-02-04T01:32:53.127Z,8.97
2019-02-04T01:35:58.274Z,10.30
2019-02-04T01:39:03.810Z,9.77
2019-02-04T01:42:10.575Z,10.57
2019-02-04T01:45:16.073Z,11.90
2019-02-04T01:48:21.301Z,7.60
2019-02-04T01:51:26.588Z,9.67
2019-02-04T01:54:31.766Z,8.67
2019-02-04T01:57:36.865Z,11.63
2019-02-04T02:00:42.005Z,11.73
2019-02-04T02:03:47.224Z,10.13
2019-02-04T02:06:52.395Z,11.20
2019-02-04T02:09:57.532Z,11.67
2019-02-04T02:13:02.649Z,10.97
2019-02-04T02:16:08.337Z,9.73
2019-02-04T02:19:13.491Z,8.97
2019-02-04T02:22:18.696Z,9.40
2019-02-04T02:25:24.006Z,10.60
2019-02-04T02:28:29.134Z,14.03
2019-02-04T02:31:34.211Z,11.57
2019-02-04T02:34:39.439Z,10.70
2019-02-04T02:37:44.545Z,10.63
2019-02-04T02:40:49.757Z,8.73
2019-02-04T02:43:55.120Z,14.37
2019-02-04T02:47:00.313Z,11.27
2019-02-04T02:50:06.584Z,8.33
2019-02-04T02:53:11.831Z,8.90
2019-02-04T02:56:17.176Z,8.40
2019-02-04T02:59:22.270Z,11.47
2019-02-04T03:02:27.549Z,8.03
2019-02-04T03:05:32.759Z,12.77
2019-02-04T03:08:37.881Z,10.00
2019-02-04T03:11:43.022Z,8.23
2019-02-04T03:14:48.138Z,10.20
2019-02-04T03:17:53.398Z,8.13
2019-02-04T03:20:58.592Z,10.73
2019-02-04T03:24:03.775Z,8.63
2019-02-04T03:27:09.184Z,8.07
2019-02-04T03:30:20.277Z,9.87
2019-02-04T03:33:25.422Z,9.50
2019-02-04T03:36:30.571Z,7.83
2019-02-04T03:39:35.676Z,7.30
2019-02-04T03:42:40.860Z,9.43
2019-02-04T03:45:45.996Z,11.97
2019-02-04T03:48:51.134Z,9.60
2019-02-04T03:51:56.275Z,11.57
2019-02-04T03:55:01.396Z,12.57
2019-02-04T03:58:06.602Z,12.17
2019-02-04T04:01:12.754Z,28.73
2019-02-04T04:04:17.964Z,8.77
2019-02-04T04:07:23.164Z,11.33
2019-02-04T04:10:28.393Z,11.07
2019-02-04T04:13:33.528Z,10.33
2019-02-04T04:16:38.676Z,6.27
2019-02-04T04:19:45.214Z,9.43
2019-02-04T04:22:50.394Z,10.20
2019-02-04T04:25:55.592Z,16.53
2019-02-04T04:29:01.814Z,14.70
2019-02-04T04:32:07.164Z,13.97
2019-02-04T04:35:12.577Z,10.83
2019-02-04T04:38:17.703Z,12.47
2019-02-04T04:41:23.001Z,12.37
2019-02-04T04:44:28.103Z,11.37
2019-02-04T04:47:33.312Z,11.00
2019-02-04T04:50:38.483Z,13.00
2019-02-04T04:53:43.668Z,11.83
2019-02-04T04:56:48.814Z,12.47
2019-02-04T04:59:54.331Z,12.03
2019-02-04T05:03:00.006Z,10.60
2019-02-04T05:06:05.123Z,14.07
2019-02-04T05:09:10.314Z,10.93
2019-02-04T05:12:15.478Z,10.23
2019-02-04T05:15:22.783Z,13.47
2019-02-04T05:18:37.824Z,12.53
2019-02-04T05:21:34.787Z,12.00
2019-02-04T05:24:40.012Z,13.53
2019-02-04T05:27:45.149Z,11.23
2019-02-04T05:30:50.305Z,12.17
2019-02-04T05:33:55.431Z,12.13
2019-02-04T05:37:00.604Z,13.67
2019-02-04T05:40:07.006Z,12.00
2019-02-04T05:43:12.190Z,12.10
2019-02-04T05:46:17.407Z,14.83
2019-02-04T05:49:22.600Z,11.57
2019-02-04T05:52:27.708Z,12.63
2019-02-04T05:55:32.915Z,14.40
2019-02-04T05:58:38.067Z,12.83
2019-02-04T06:01:43.569Z,16.47
2019-02-04T06:04:48.748Z,12.40
2019-02-04T06:07:53.843Z,15.50
2019-02-04T06:10:58.983Z,20.10
2019-02-04T06:14:04.185Z,16.67
2019-02-04T06:17:09.387Z,16.30
2019-02-04T06:20:16.876Z,13.80
2019-02-04T06:23:22.006Z,15.03
2019-02-04T06:26:27.232Z,15.10
2019-02-04T06:29:32.362Z,14.67
2019-02-04T06:32:38.062Z,17.50
2019-02-04T06:35:43.352Z,20.83
2019-02-04T06:38:48.505Z,17.00
2019-02-04T06:41:53.709Z,12.30
2019-02-04T06:44:58.910Z,18.10
2019-02-04T06:48:04.303Z,16.40
2019-02-04T06:51:09.512Z,18.47
2019-02-04T06:54:14.773Z,13.53
2019-02-04T06:57:19.955Z,12.23
2019-02-04T07:00:25.078Z,12.03
2019-02-04T07:03:30.456Z,15.17
2019-02-04T07:06:35.581Z,11.37
2019-02-04T07:09:40.743Z,13.10
2019-02-04T07:12:46.329Z,11.47
2019-02-04T07:15:51.538Z,13.07
2019-02-04T07:18:56.792Z,22.20
2019-02-04T07:22:02.194Z,24.37
2019-02-04T07:25:10.274Z,35.37
2019-02-04T07:28:15.492Z,38.50
2019-02-04T07:31:20.663Z,29.03
2019-02-04T07:34:25.935Z,27.20
2019-02-04T07:37:31.140Z,20.90
2019-02-04T07:40:36.332Z,23.80
2019-02-04T07:43:41.544Z,21.87
2019-02-04T07:46:46.693Z,15.70
2019-02-04T07:49:51.856Z,20.37
2019-02-04T07:52:57.301Z,14.50
2019-02-04T07:56:02.421Z,18.70
2019-02-04T07:59:07.586Z,17.40
2019-02-04T08:02:13.937Z,18.67
2019-02-04T08:05:19.058Z,16.30
2019-02-04T08:08:24.206Z,17.73
2019-02-04T08:11:29.399Z,19.27
2019-02-04T08:14:35.589Z,22.30
2019-02-04T08:17:40.742Z,14.83
2019-02-04T08:20:45.884Z,20.97
2019-02-04T08:23:51.103Z,24.77
2019-02-04T08:26:56.432Z,24.00
2019-02-04T08:30:01.747Z,23.93
2019-02-04T08:33:07.360Z,28.13
2019-02-04T08:36:12.690Z,20.87
2019-02-04T08:39:17.902Z,24.03
2019-02-04T08:42:23.434Z,25.40
2019-02-04T08:45:28.550Z,35.30
2019-02-04T08:48:33.764Z,26.30
2019-02-04T08:51:38.969Z,32.00
2019-02-04T08:54:44.095Z,24.53
2019-02-04T08:57:49.232Z,43.90
2019-02-04T09:00:54.453Z,64.20
2019-02-04T09:03:59.612Z,26.20
2019-02-04T09:07:05.018Z,30.93
2019-02-04T09:10:11.769Z,35.17
2019-02-04T09:13:17.014Z,70.73
2019-02-04T09:16:22.167Z,103.17
2019-02-04T09:19:27.330Z,23.13
2019-02-04T09:22:32.494Z,23.70
2019-02-04T09:25:37.663Z,26.23
2019-02-04T09:28:42.818Z,25.63
2019-02-04T09:31:47.958Z,27.63
2019-02-04T09:34:53.101Z,23.27
2019-02-04T09:37:58.313Z,27.53
2019-02-04T09:41:03.899Z,22.93
2019-02-04T09:44:09.013Z,23.57
2019-02-04T09:47:14.118Z,18.93
2019-02-04T09:50:22.037Z,15.70
2019-02-04T09:53:27.357Z,21.57
2019-02-04T09:56:32.535Z,18.30
2019-02-04T09:59:37.656Z,15.43
2019-02-04T10:02:42.792Z,17.43
2019-02-04T10:05:47.935Z,16.30
2019-02-04T10:08:53.105Z,15.63
2019-02-04T10:11:58.264Z,14.77
2019-02-04T10:15:04.589Z,16.33
2019-02-04T10:18:11.291Z,16.27
2019-02-04T10:21:16.717Z,20.10
2019-02-04T10:24:22.026Z,17.77
2019-02-04T10:27:27.183Z,22.17
2019-02-04T10:30:32.484Z,17.90
2019-02-04T10:33:37.709Z,17.53
2019-02-04T10:36:42.900Z,20.53
2019-02-04T10:39:48.094Z,21.43
2019-02-04T10:42:53.307Z,30.33
2019-02-04T10:45:58.547Z,19.03
2019-02-04T10:49:03.641Z,17.03
2019-02-04T10:52:09.190Z,17.30
2019-02-04T10:55:14.659Z,15.00
2019-02-04T10:58:20.068Z,16.00
2019-02-04T11:01:25.487Z,11.83
2019-02-04T11:04:30.611Z,16.07
2019-02-04T11:07:35.723Z,15.00
2019-02-04T11:10:41.397Z,13.27
2019-02-04T11:13:46.662Z,17.77
2019-02-04T11:16:51.814Z,13.93
2019-02-04T11:19:56.984Z,14.10
2019-02-04T11:23:02.176Z,12.07
2019-02-04T11:26:07.430Z,14.13
2019-02-04T11:29:12.544Z,12.47
2019-02-04T11:32:18.033Z,10.80
2019-02-04T11:35:23.201Z,8.70
2019-02-04T11:38:28.339Z,10.33
2019-02-04T11:41:33.629Z,9.40
2019-02-04T11:44:38.883Z,6.00
2019-02-04T11:47:44.093Z,5.23
2019-02-04T11:50:49.405Z,5.97
2019-02-04T11:53:54.607Z,7.90
2019-02-04T11:56:59.763Z,6.90
2019-02-04T12:00:06.932Z,7.43
2019-02-04T12:03:13.995Z,6.97
2019-02-04T12:06:19.106Z,7.03
2019-02-04T12:09:24.307Z,7.00
2019-02-04T12:12:29.753Z,5.63
2019-02-04T12:15:34.964Z,7.60
2019-02-04T12:18:40.160Z,6.63
2019-02-04T12:21:45.317Z,6.90
2019-02-04T12:24:50.519Z,10.00
2019-02-04T12:27:56.343Z,5.43
2019-02-04T12:31:01.479Z,7.53
2019-02-04T12:34:06.661Z,5.53
2019-02-04T12:37:11.785Z,7.97
2019-02-04T12:40:17.200Z,7.67
2019-02-04T12:43:22.304Z,7.40
2019-02-04T12:46:27.486Z,5.90
2019-02-04T12:49:32.657Z,7.53
2019-02-04T12:52:38.105Z,7.43
2019-02-04T12:55:43.274Z,5.27
2019-02-04T12:58:55.411Z,6.23
2019-02-04T13:01:55.268Z,6.47
2019-02-04T13:05:00.431Z,5.70
2019-02-04T13:08:07.084Z,5.83
2019-02-04T13:11:12.210Z,6.63
2019-02-04T13:14:17.367Z,5.93
2019-02-04T13:17:22.510Z,6.70
2019-02-04T13:20:27.697Z,5.33
2019-02-04T13:23:32.899Z,7.57
2019-02-04T13:26:38.043Z,6.63
2019-02-04T13:29:43.224Z,4.57
2019-02-04T13:32:48.696Z,4.07
2019-02-04T13:35:53.803Z,5.57
2019-02-04T13:38:58.916Z,3.57
2019-02-04T13:42:04.449Z,4.50
2019-02-04T13:45:13.033Z,6.20
2019-02-04T13:48:18.271Z,5.47
2019-02-04T13:51:23.530Z,4.67
2019-02-04T13:54:28.682Z,4.83
2019-02-04T13:57:33.769Z,4.07
2019-02-04T14:00:39.401Z,7.73
2019-02-04T14:03:44.751Z,8.03
2019-02-04T14:06:49.878Z,4.37
2019-02-04T14:09:54.979Z,3.73
2019-02-04T14:13:00.127Z,5.77
2019-02-04T14:16:05.604Z,4.50
2019-02-04T14:19:10.755Z,6.43
2019-02-04T14:22:15.851Z,4.70
2019-02-04T14:25:21.465Z,4.43
2019-02-04T14:28:27.878Z,4.03
2019-02-04T14:31:35.410Z,5.47
2019-02-04T14:34:40.691Z,5.60
2019-02-04T14:37:45.982Z,5.27
2019-02-04T14:40:51.187Z,6.40
2019-02-04T14:44:20.680Z,5.47
2019-02-04T14:47:46.666Z,5.17
2019-02-04T14:51:22.842Z,5.97
2019-02-04T14:55:27.344Z,6.70
2019-02-04T14:59:03.103Z,5.83
2019-02-04T15:02:35.512Z,8.27
2019-02-04T15:06:01.597Z,7.50
2019-02-04T15:09:39.843Z,5.20
2019-02-04T15:13:22.713Z,6.90
2019-02-04T15:16:52.081Z,5.17
2019-02-04T15:20:59.495Z,4.20
2019-02-04T15:24:27.684Z,4.43
2019-02-04T15:28:12.831Z,4.13
2019-02-04T15:31:51.285Z,2.83
2019-02-04T15:35:33.399Z,4.67
2019-02-04T15:39:06.459Z,6.47
2019-02-04T15:42:58.633Z,5.90
2019-02-04T15:46:36.486Z,2.87
2019-02-04T15:50:36.920Z,3.57
2019-02-04T15:53:42.066Z,3.73
2019-02-04T15:56:47.450Z,3.10
2019-02-04T15:59:52.688Z,4.43
2019-02-04T16:02:57.846Z,4.77
2019-02-04T16:06:04.160Z,7.83
2019-02-04T16:09:10.695Z,10.53
2019-02-04T16:12:15.854Z,33.43
2019-02-04T16:15:21.004Z,9.80
2019-02-04T16:18:26.252Z,15.10
2019-02-04T16:21:34.177Z,13.83
2019-02-04T16:24:38.248Z,12.70
2019-02-04T16:27:43.363Z,22.43
2019-02-04T16:30:48.543Z,8.30
2019-02-04T16:33:53.745Z,9.30
2019-02-04T16:36:59.413Z,6.73
2019-02-04T16:40:04.959Z,6.47
2019-02-04T16:43:10.085Z,19.80
2019-02-04T16:46:15.367Z,12.00
2019-02-04T16:49:20.560Z,11.70
2019-02-04T16:52:25.673Z,13.53
2019-02-04T16:55:30.797Z,13.07
2019-02-04T16:58:36.083Z,20.97
2019-02-04T17:01:41.316Z,22.67
2019-02-04T17:04:46.668Z,25.20
2019-02-04T17:07:52.033Z,20.40
2019-02-04T17:10:58.242Z,21.43
2019-02-04T17:14:03.607Z,16.80
2019-02-04T17:17:09.257Z,15.77
2019-02-04T17:20:18.056Z,14.07
2019-02-04T17:23:23.224Z,19.87
2019-02-04T17:26:28.472Z,13.33
2019-02-04T17:29:33.721Z,13.10
2019-02-04T17:32:38.835Z,24.30
2019-02-04T17:35:44.035Z,29.17
2019-02-04T17:38:49.209Z,24.80
2019-02-04T17:41:54.361Z,26.70
2019-02-04T17:44:59.450Z,25.83
2019-02-04T17:48:05.398Z,22.33
2019-02-04T17:51:10.639Z,18.40
2019-02-04T17:54:15.797Z,25.47
2019-02-04T17:57:21.331Z,30.40
2019-02-04T18:00:38.872Z,19.53
2019-02-04T18:03:44.128Z,73.60
2019-02-04T18:06:49.390Z,35.40
2019-02-04T18:09:54.628Z,37.67
2019-02-04T18:12:59.860Z,32.67
2019-02-04T18:16:05.504Z,25.83
2019-02-04T18:19:11.219Z,26.37
2019-02-04T18:22:16.422Z,24.93
2019-02-04T18:25:21.622Z,32.63
2019-02-04T18:28:26.865Z,29.97
2019-02-04T18:31:34.083Z,30.87
2019-02-04T18:34:38.893Z,34.90
2019-02-04T18:37:44.218Z,29.77
2019-02-04T18:40:49.392Z,30.73
2019-02-04T18:43:54.563Z,33.43
2019-02-04T18:46:59.904Z,30.13
2019-02-04T18:50:06.112Z,37.37
2019-02-04T18:53:11.592Z,29.10
2019-02-04T18:56:16.707Z,33.13
2019-02-04T18:59:21.904Z,35.07
2019-02-04T19:02:27.439Z,157.17
2019-02-04T19:05:32.725Z,72.97
2019-02-04T19:08:38.050Z,46.20
2019-02-04T19:11:43.559Z,79.40
2019-02-04T19:14:48.764Z,65.00
2019-02-04T19:17:56.425Z,40.27
2019-02-04T19:21:01.686Z,54.80
2019-02-04T19:24:09.820Z,27.90
2019-02-04T19:27:14.069Z,25.90
2019-02-04T19:30:40.608Z,25.17
2019-02-04T19:33:46.290Z,20.70
2019-02-04T19:36:51.459Z,33.97
2019-02-04T19:39:56.800Z,25.40
2019-02-04T19:43:02.339Z,24.07
2019-02-04T19:46:07.733Z,19.87
2019-02-04T19:49:13.093Z,21.17
2019-02-04T19:52:18.303Z,26.57
2019-02-04T19:55:24.081Z,26.07
2019-02-04T19:58:29.231Z,29.73
2019-02-04T20:01:34.459Z,23.77
2019-02-04T20:04:39.667Z,21.33
2019-02-04T20:07:45.019Z,32.60
2019-02-04T20:10:50.267Z,20.40
2019-02-04T20:13:55.398Z,14.33
2019-02-04T20:17:00.550Z,17.47
2019-02-04T20:20:06.653Z,17.53
2019-02-04T20:23:11.842Z,15.23
2019-02-04T20:26:17.121Z,12.90
2019-02-04T20:29:22.353Z,12.33
2019-02-04T20:32:27.572Z,17.00
2019-02-04T20:35:33.181Z,18.10
2019-02-04T20:38:38.410Z,22.03
2019-02-04T20:41:43.584Z,23.53
2019-02-04T20:44:48.948Z,24.30
2019-02-04T20:47:55.409Z,27.23
2019-02-04T20:51:00.551Z,24.87
2019-02-04T20:54:06.910Z,22.73
2019-02-04T20:57:12.051Z,23.03
2019-02-04T21:00:19.764Z,25.80
2019-02-04T21:03:25.161Z,26.63
2019-02-04T21:06:31.406Z,23.33
2019-02-04T21:09:36.632Z,20.67
2019-02-04T21:12:41.861Z,20.17
2019-02-04T21:15:47.437Z,22.13
2019-02-04T21:18:52.569Z,21.03
2019-02-04T21:21:57.740Z,17.83
2019-02-04T21:25:03.203Z,26.00
2019-02-04T21:28:08.426Z,18.93
2019-02-04T21:31:13.605Z,21.50
2019-02-04T21:34:18.869Z,18.87
2019-02-04T21:37:24.143Z,19.90
2019-02-04T21:40:29.418Z,15.10
2019-02-04T21:43:34.711Z,17.83
2019-02-04T21:46:39.955Z,19.03
2019-02-04T21:49:45.176Z,22.57
2019-02-04T21:52:50.760Z,19.97
2019-02-04T21:55:57.019Z,18.10
2019-02-04T21:59:02.192Z,16.47
2019-02-04T22:02:07.378Z,15.17
2019-02-04T22:05:14.628Z,11.07
2019-02-04T22:08:19.886Z,13.27
2019-02-04T22:11:25.151Z,10.60
2019-02-04T22:14:30.415Z,8.90
2019-02-04T22:17:35.564Z,11.97
2019-02-04T22:20:40.773Z,14.23
2019-02-04T22:23:45.886Z,13.50
2019-02-04T22:26:51.083Z,13.07
2019-02-04T22:29:56.285Z,15.80
2019-02-04T22:33:01.744Z,15.17
2019-02-04T22:36:07.022Z,11.00
2019-02-04T22:39:12.284Z,12.93
2019-02-04T22:42:18.415Z,13.77
2019-02-04T22:45:23.879Z,12.13
2019-02-04T22:48:29.044Z,13.73
2019-02-04T22:51:34.183Z,13.03
2019-02-04T22:54:39.347Z,17.40
2019-02-04T22:57:44.574Z,16.10
2019-02-04T23:01:26.945Z,16.07
2019-02-04T23:04:32.180Z,15.50
2019-02-04T23:07:37.328Z,18.47
2019-02-04T23:10:42.528Z,19.60
2019-02-04T23:13:47.701Z,21.40
2019-02-04T23:16:52.905Z,18.67
2019-02-04T23:19:58.363Z,14.23
2019-02-04T23:23:03.542Z,19.47
2019-02-04T23:26:08.665Z,17.87
2019-02-04T23:29:13.835Z,18.90
2019-02-04T23:32:19.006Z,14.30
2019-02-04T23:35:24.215Z,14.77
2019-02-04T23:38:29.428Z,13.10
2019-02-04T23:41:34.628Z,15.00
2019-02-04T23:44:39.842Z,14.20
2019-02-04T23:47:44.957Z,13.40
2019-02-04T23:50:50.463Z,15.13
2019-02-04T23:53:56.044Z,14.83
2019-02-04T23:57:01.172Z,10.90
